Terminal Aerodrome Forecast
Issued by NWS

Home | Current Version | Previous Version | Text Only | Print | Product List | Glossary Off
Versions: 1 2 3 4 5 6 7 8 9 10 11 12 13 14 15 16 17 18 19 20 21 22 23

646
FTUS43 KICT 211143
TAFRSL
TAF
KRSL 211143Z 2112/2212 01009KT P6SM SKC
     FM211800 03009KT P6SM BKN100
     FM212200 06013KT P6SM SCT020 OVC050
     FM220300 07009KT 3SM -SN OVC015=

USA.gov is the U.S. government's official web portal to all federal, state and local government web resources and services.